sensor_id;sensor_type;location;lat;lon;timestamp;pressure;altitude;pressure_sealevel;temperature;humidity
79413;BME280;68863;49.528;11.010;2023-04-19T00:00:34;98956.53;;;7.87;70.04
79413;BME280;68863;49.528;11.010;2023-04-19T00:01:35;98959.56;;;7.97;70.10
79413;BME280;68863;49.528;11.010;2023-04-19T00:02:35;98951.16;;;7.90;69.93
79413;BME280;68863;49.528;11.010;2023-04-19T00:03:35;98952.63;;;7.96;70.19
79413;BME280;68863;49.528;11.010;2023-04-19T00:04:35;98954.69;;;7.89;70.36
79413;BME280;68863;49.528;11.010;2023-04-19T00:05:37;98952.84;;;7.91;70.17
79413;BME280;68863;49.528;11.010;2023-04-19T00:06:37;98954.22;;;7.81;70.36
79413;BME280;68863;49.528;11.010;2023-04-19T00:07:40;98942.25;;;7.94;69.77
79413;BME280;68863;49.528;11.010;2023-04-19T00:08:40;98951.06;;;7.92;70.15
79413;BME280;68863;49.528;11.010;2023-04-19T00:09:41;98945.63;;;7.96;69.92
79413;BME280;68863;49.528;11.010;2023-04-19T00:10:41;98942.19;;;7.96;69.72
79413;BME280;68863;49.528;11.010;2023-04-19T00:11:41;98946.84;;;7.89;69.90
79413;BME280;68863;49.528;11.010;2023-04-19T00:12:42;98942.47;;;7.90;69.79
79413;BME280;68863;49.528;11.010;2023-04-19T00:13:42;98938.22;;;7.87;70.09
79413;BME280;68863;49.528;11.010;2023-04-19T00:14:42;98939.63;;;7.77;70.18
79413;BME280;68863;49.528;11.010;2023-04-19T00:15:43;98940.69;;;7.73;70.51
79413;BME280;68863;49.528;11.010;2023-04-19T00:16:43;98946.81;;;7.72;70.56
79413;BME280;68863;49.528;11.010;2023-04-19T00:17:43;98937.41;;;7.68;70.85
79413;BME280;68863;49.528;11.010;2023-04-19T00:18:43;98942.66;;;7.68;70.54
79413;BME280;68863;49.528;11.010;2023-04-19T00:19:44;98943.44;;;7.70;70.80
79413;BME280;68863;49.528;11.010;2023-04-19T00:20:44;98937.28;;;7.71;70.80
79413;BME280;68863;49.528;11.010;2023-04-19T00:21:44;98941.66;;;7.70;70.68
79413;BME280;68863;49.528;11.010;2023-04-19T00:22:44;98937.75;;;7.79;70.43
79413;BME280;68863;49.528;11.010;2023-04-19T00:23:45;98939.28;;;7.83;70.30
79413;BME280;68863;49.528;11.010;2023-04-19T00:24:45;98939.28;;;7.83;70.13
79413;BME280;68863;49.528;11.010;2023-04-19T00:25:45;98944.59;;;7.81;70.31
79413;BME280;68863;49.528;11.010;2023-04-19T00:26:45;98941.84;;;7.84;70.16
79413;BME280;68863;49.528;11.010;2023-04-19T00:27:46;98942.56;;;7.88;70.12
79413;BME280;68863;49.528;11.010;2023-04-19T00:28:46;98940.00;;;7.86;70.06
79413;BME280;68863;49.528;11.010;2023-04-19T00:29:46;98940.13;;;7.83;70.39
79413;BME280;68863;49.528;11.010;2023-04-19T00:30:46;98942.69;;;7.85;70.21
79413;BME280;68863;49.528;11.010;2023-04-19T00:31:47;98936.78;;;7.81;70.30
79413;BME280;68863;49.528;11.010;2023-04-19T00:32:47;98934.28;;;7.78;70.68
79413;BME280;68863;49.528;11.010;2023-04-19T00:33:47;98930.84;;;7.78;70.65
79413;BME280;68863;49.528;11.010;2023-04-19T00:34:48;98932.13;;;7.69;70.87
79413;BME280;68863;49.528;11.010;2023-04-19T00:35:48;98932.13;;;7.69;70.81
79413;BME280;68863;49.528;11.010;2023-04-19T00:36:48;98939.19;;;7.67;71.18
79413;BME280;68863;49.528;11.010;2023-04-19T00:37:48;98934.91;;;7.66;71.14
79413;BME280;68863;49.528;11.010;2023-04-19T00:38:49;98938.34;;;7.67;71.12
79413;BME280;68863;49.528;11.010;2023-04-19T00:39:49;98933.25;;;7.64;70.98
79413;BME280;68863;49.528;11.010;2023-04-19T00:40:49;98938.34;;;7.67;71.26
79413;BME280;68863;49.528;11.010;2023-04-19T00:41:50;98931.59;;;7.63;71.29
79413;BME280;68863;49.528;11.010;2023-04-19T00:42:50;98932.66;;;7.58;71.42
79413;BME280;68863;49.528;11.010;2023-04-19T00:43:50;98929.34;;;7.55;71.24
79413;BME280;68863;49.528;11.010;2023-04-19T00:44:50;98929.34;;;7.55;71.35
79413;BME280;68863;49.528;11.010;2023-04-19T00:45:51;98924.81;;;7.58;71.41
79413;BME280;68863;49.528;11.010;2023-04-19T00:46:51;98926.72;;;7.55;71.38
79413;BME280;68863;49.528;11.010;2023-04-19T00:47:52;98925.88;;;7.54;71.54
79413;BME280;68863;49.528;11.010;2023-04-19T00:48:53;98919.59;;;7.58;71.36
79413;BME280;68863;49.528;11.010;2023-04-19T00:49:54;98933.81;;;7.53;71.46
79413;BME280;68863;49.528;11.010;2023-04-19T00:50:54;98928.06;;;7.45;71.97
79413;BME280;68863;49.528;11.010;2023-04-19T00:51:54;98924.47;;;7.47;71.79
79413;BME280;68863;49.528;11.010;2023-04-19T00:52:55;98927.53;;;7.38;72.21
79413;BME280;68863;49.528;11.010;2023-04-19T00:53:56;98925.44;;;7.45;72.12
79413;BME280;68863;49.528;11.010;2023-04-19T00:54:57;98923.28;;;7.35;72.30
79413;BME280;68863;49.528;11.010;2023-04-19T00:56:01;98924.28;;;7.33;72.36
79413;BME280;68863;49.528;11.010;2023-04-19T00:57:04;98924.00;;;7.39;72.21
79413;BME280;68863;49.528;11.010;2023-04-19T00:58:06;98923.28;;;7.35;72.38
79413;BME280;68863;49.528;11.010;2023-04-19T00:59:06;98927.66;;;7.35;71.81
79413;BME280;68863;49.528;11.010;2023-04-19T01:00:08;98925.81;;;7.37;72.08
79413;BME280;68863;49.528;11.010;2023-04-19T01:01:09;98922.22;;;7.40;72.21
79413;BME280;68863;49.528;11.010;2023-04-19T01:02:09;98927.53;;;7.38;72.10
79413;BME280;68863;49.528;11.010;2023-04-19T01:03:09;98926.69;;;7.38;72.52
79413;BME280;68863;49.528;11.010;2023-04-19T01:04:09;98923.91;;;7.41;72.19
79413;BME280;68863;49.528;11.010;2023-04-19T01:05:10;98918.63;;;7.42;72.10
79413;BME280;68863;49.528;11.010;2023-04-19T01:06:10;98918.63;;;7.42;72.10
79413;BME280;68863;49.528;11.010;2023-04-19T01:07:12;98927.44;;;7.40;72.33
79413;BME280;68863;49.528;11.010;2023-04-19T01:08:12;98921.47;;;7.38;72.52
79413;BME280;68863;49.528;11.010;2023-04-19T01:09:12;98925.19;;;7.32;72.64
79413;BME280;68863;49.528;11.010;2023-04-19T01:10:13;98920.53;;;7.39;72.09
79413;BME280;68863;49.528;11.010;2023-04-19T01:11:13;98917.22;;;7.35;72.11
79413;BME280;68863;49.528;11.010;2023-04-19T01:12:13;98919.59;;;7.40;71.97
79413;BME280;68863;49.528;11.010;2023-04-19T01:13:14;98914.25;;;7.43;72.16
79413;BME280;68863;49.528;11.010;2023-04-19T01:14:14;98914.38;;;7.40;72.23
79413;BME280;68863;49.528;11.010;2023-04-19T01:15:15;98919.75;;;7.36;72.19
79413;BME280;68863;49.528;11.010;2023-04-19T01:16:15;98911.91;;;7.36;72.54
79413;BME280;68863;49.528;11.010;2023-04-19T01:17:16;98913.53;;;7.39;72.20
79413;BME280;68863;49.528;11.010;2023-04-19T01:18:17;98911.16;;;7.34;72.29
79413;BME280;68863;49.528;11.010;2023-04-19T01:19:21;98919.13;;;7.31;72.62
79413;BME280;68863;49.528;11.010;2023-04-19T01:22:46;98911.38;;;7.30;72.40
79413;BME280;68863;49.528;11.010;2023-04-19T01:23:47;98905.22;;;7.31;72.42
79413;BME280;68863;49.528;11.010;2023-04-19T01:24:47;98910.59;;;7.28;72.45
79413;BME280;68863;49.528;11.010;2023-04-19T01:25:47;98900.97;;;7.28;72.41
79413;BME280;68863;49.528;11.010;2023-04-19T01:26:49;98901.81;;;7.29;72.19
79413;BME280;68863;49.528;11.010;2023-04-19T01:27:49;98899.16;;;7.30;72.26
79413;BME280;68863;49.528;11.010;2023-04-19T01:28:49;98904.31;;;7.32;72.08
79413;BME280;68863;49.528;11.010;2023-04-19T01:29:49;98898.72;;;7.21;72.63
79413;BME280;68863;49.528;11.010;2023-04-19T01:30:50;98895.91;;;7.25;72.72
79413;BME280;68863;49.528;11.010;2023-04-19T01:31:52;98893.25;;;7.27;72.57
79413;BME280;68863;49.528;11.010;2023-04-19T01:32:52;98894.53;;;7.18;72.57
79413;BME280;68863;49.528;11.010;2023-04-19T01:33:53;98892.44;;;7.25;72.66
79413;BME280;68863;49.528;11.010;2023-04-19T01:34:53;98888.78;;;7.29;72.57
79413;BME280;68863;49.528;11.010;2023-04-19T01:35:53;98890.00;;;7.22;72.61
79413;BME280;68863;49.528;11.010;2023-04-19T01:36:53;98895.16;;;7.23;72.68
79413;BME280;68863;49.528;11.010;2023-04-19T01:37:54;98888.16;;;7.24;72.73
79413;BME280;68863;49.528;11.010;2023-04-19T01:38:56;98884.47;;;7.28;72.78
79413;BME280;68863;49.528;11.010;2023-04-19T01:39:56;98898.22;;;7.31;72.74
79413;BME280;68863;49.528;11.010;2023-04-19T01:40:57;98895.84;;;7.27;72.73
79413;BME280;68863;49.528;11.010;2023-04-19T01:41:57;98882.47;;;7.33;72.42
79413;BME280;68863;49.528;11.010;2023-04-19T01:42:57;98892.78;;;7.36;72.56
79413;BME280;68863;49.528;11.010;2023-04-19T01:43:57;98893.56;;;7.38;72.69
79413;BME280;68863;49.528;11.010;2023-04-19T01:44:59;98884.81;;;7.39;72.54
79413;BME280;68863;49.528;11.010;2023-04-19T01:46:00;98886.44;;;7.42;72.12
79413;BME280;68863;49.528;11.010;2023-04-19T01:47:00;98884.34;;;7.31;72.43
79413;BME280;68863;49.528;11.010;2023-04-19T01:48:01;98882.19;;;7.39;72.26
79413;BME280;68863;49.528;11.010;2023-04-19T01:49:03;98884.03;;;7.37;72.27
79413;BME280;68863;49.528;11.010;2023-04-19T01:50:04;98884.09;;;7.35;72.30
79413;BME280;68863;49.528;11.010;2023-04-19T01:51:04;98879.69;;;7.38;72.42
79413;BME280;68863;49.528;11.010;2023-04-19T01:52:05;98880.75;;;7.33;72.67
79413;BME280;68863;49.528;11.010;2023-04-19T01:53:05;98879.59;;;7.39;72.37
79413;BME280;68863;49.528;11.010;2023-04-19T01:54:05;98879.59;;;7.39;72.42
79413;BME280;68863;49.528;11.010;2023-04-19T01:55:06;98879.94;;;7.31;72.88
79413;BME280;68863;49.528;11.010;2023-04-19T01:56:06;98879.03;;;7.32;72.82
79413;BME280;68863;49.528;11.010;2023-04-19T01:57:06;98880.09;;;7.28;72.55
79413;BME280;68863;49.528;11.010;2023-04-19T01:58:07;98882.72;;;7.28;72.94
79413;BME280;68863;49.528;11.010;2023-04-19T01:59:07;98881.78;;;7.29;73.06
79413;BME280;68863;49.528;11.010;2023-04-19T02:00:08;98879.38;;;7.25;73.17
79413;BME280;68863;49.528;11.010;2023-04-19T02:01:09;98882.78;;;7.27;73.08
79413;BME280;68863;49.528;11.010;2023-04-19T02:02:11;98878.41;;;7.27;73.00
79413;BME280;68863;49.528;11.010;2023-04-19T02:03:11;98873.09;;;7.29;73.03
79413;BME280;68863;49.528;11.010;2023-04-19T02:04:12;98872.03;;;7.33;72.69
79413;BME280;68863;49.528;11.010;2023-04-19T02:05:12;98879.25;;;7.28;73.01
79413;BME280;68863;49.528;11.010;2023-04-19T02:06:12;98876.72;;;7.26;73.26
79413;BME280;68863;49.528;11.010;2023-04-19T02:07:13;98886.47;;;7.23;73.44
79413;BME280;68863;49.528;11.010;2023-04-19T02:08:13;98878.31;;;7.29;73.24
79413;BME280;68863;49.528;11.010;2023-04-19T02:09:13;98884.34;;;7.31;73.34
79413;BME280;68863;49.528;11.010;2023-04-19T02:10:13;98880.88;;;7.30;72.94
79413;BME280;68863;49.528;11.010;2023-04-19T02:11:14;98871.63;;;7.23;73.44
79413;BME280;68863;49.528;11.010;2023-04-19T02:12:15;98871.56;;;7.25;73.38
79413;BME280;68863;49.528;11.010;2023-04-19T02:13:15;98874.13;;;7.26;73.36
79413;BME280;68863;49.528;11.010;2023-04-19T02:14:15;98866.41;;;7.23;73.13
79413;BME280;68863;49.528;11.010;2023-04-19T02:15:15;98860.22;;;7.26;73.08
79413;BME280;68863;49.528;11.010;2023-04-19T02:16:16;98861.66;;;7.31;73.01
79413;BME280;68863;49.528;11.010;2023-04-19T02:17:16;98861.09;;;7.25;73.00
79413;BME280;68863;49.528;11.010;2023-04-19T02:18:16;98853.13;;;7.28;73.18
79413;BME280;68863;49.528;11.010;2023-04-19T02:19:17;98857.66;;;7.24;73.19
79413;BME280;68863;49.528;11.010;2023-04-19T02:20:17;98860.22;;;7.26;73.53
79413;BME280;68863;49.528;11.010;2023-04-19T02:21:18;98851.44;;;7.27;73.27
79413;BME280;68863;49.528;11.010;2023-04-19T02:22:18;98856.69;;;7.27;73.24
79413;BME280;68863;49.528;11.010;2023-04-19T02:23:19;98852.44;;;7.24;73.17
79413;BME280;68863;49.528;11.010;2023-04-19T02:24:19;98854.28;;;7.22;73.47
79413;BME280;68863;49.528;11.010;2023-04-19T02:25:19;98859.03;;;7.14;73.40
79413;BME280;68863;49.528;11.010;2023-04-19T02:26:19;98857.19;;;7.16;73.64
79413;BME280;68863;49.528;11.010;2023-04-19T02:27:20;98857.25;;;7.15;72.27
79413;BME280;68863;49.528;11.010;2023-04-19T02:28:21;98860.31;;;6.86;72.28
79413;BME280;68863;49.528;11.010;2023-04-19T02:29:21;98854.59;;;6.78;72.79
79413;BME280;68863;49.528;11.010;2023-04-19T02:30:22;98864.19;;;6.78;73.04
79413;BME280;68863;49.528;11.010;2023-04-19T02:31:22;98855.81;;;6.71;73.08
79413;BME280;68863;49.528;11.010;2023-04-19T02:32:22;98863.81;;;6.85;73.00
79413;BME280;68863;49.528;11.010;2023-04-19T02:33:24;98862.72;;;6.91;72.97
79413;BME280;68863;49.528;11.010;2023-04-19T02:34:26;98856.00;;;6.85;73.27
79413;BME280;68863;49.528;11.010;2023-04-19T02:35:26;98855.28;;;6.82;72.54
79413;BME280;68863;49.528;11.010;2023-04-19T02:36:27;98851.06;;;6.79;72.94
79413;BME280;68863;49.528;11.010;2023-04-19T02:37:27;98855.25;;;6.83;72.42
79413;BME280;68863;49.528;11.010;2023-04-19T02:38:27;98846.00;;;6.76;72.70
79413;BME280;68863;49.528;11.010;2023-04-19T02:39:28;98853.25;;;6.70;73.61
79413;BME280;68863;49.528;11.010;2023-04-19T02:40:31;98848.09;;;6.68;73.79
79413;BME280;68863;49.528;11.010;2023-04-19T02:41:31;98845.16;;;6.76;73.88
79413;BME280;68863;49.528;11.010;2023-04-19T02:42:42;98844.22;;;6.77;73.86
79413;BME280;68863;49.528;11.010;2023-04-19T02:43:43;98841.63;;;6.77;74.21
79413;BME280;68863;49.528;11.010;2023-04-19T02:44:43;98844.09;;;6.80;73.94
79413;BME280;68863;49.528;11.010;2023-04-19T02:45:43;98840.81;;;6.75;74.25
79413;BME280;68863;49.528;11.010;2023-04-19T02:46:48;98846.63;;;6.81;74.01
79413;BME280;68863;49.528;11.010;2023-04-19T02:47:48;98840.34;;;6.85;73.80
79413;BME280;68863;49.528;11.010;2023-04-19T02:48:49;98840.34;;;6.85;73.67
79413;BME280;68863;49.528;11.010;2023-04-19T02:49:49;98840.91;;;6.73;74.14
79413;BME280;68863;49.528;11.010;2023-04-19T02:50:49;98841.63;;;6.77;74.00
79413;BME280;68863;49.528;11.010;2023-04-19T02:51:50;98840.69;;;6.78;74.03
79413;BME280;68863;49.528;11.010;2023-04-19T02:52:51;98838.75;;;6.83;73.77
79413;BME280;68863;49.528;11.010;2023-04-19T02:53:52;98841.00;;;6.72;74.37
79413;BME280;68863;49.528;11.010;2023-04-19T02:54:52;98843.44;;;6.75;74.48
79413;BME280;68863;49.528;11.010;2023-04-19T02:55:52;98846.22;;;6.72;74.73
79413;BME280;68863;49.528;11.010;2023-04-19T02:56:52;98843.72;;;6.69;75.44
79413;BME280;68863;49.528;11.010;2023-04-19T02:57:53;98835.91;;;6.69;75.35
79413;BME280;68863;49.528;11.010;2023-04-19T02:58:53;98838.38;;;6.72;75.24
79413;BME280;68863;49.528;11.010;2023-04-19T02:59:54;98834.75;;;6.74;75.21
79413;BME280;68863;49.528;11.010;2023-04-19T03:00:54;98835.78;;;6.72;75.33
79413;BME280;68863;49.528;11.010;2023-04-19T03:01:54;98830.47;;;6.73;75.38
79413;BME280;68863;49.528;11.010;2023-04-19T03:02:55;98835.78;;;6.72;75.23
79413;BME280;68863;49.528;11.010;2023-04-19T03:03:56;98829.13;;;6.65;75.56
79413;BME280;68863;49.528;11.010;2023-04-19T03:04:56;98828.91;;;6.69;74.96
79413;BME280;68863;49.528;11.010;2023-04-19T03:05:56;98825.97;;;6.77;74.89
79413;BME280;68863;49.528;11.010;2023-04-19T03:06:57;98827.78;;;6.75;74.81
79413;BME280;68863;49.528;11.010;2023-04-19T03:07:57;98823.69;;;6.69;74.53
79413;BME280;68863;49.528;11.010;2023-04-19T03:08:57;98826.09;;;6.74;74.35
79413;BME280;68863;49.528;11.010;2023-04-19T03:09:57;98820.75;;;6.77;74.32
79413;BME280;68863;49.528;11.010;2023-04-19T03:10:58;98828.06;;;6.69;74.34
79413;BME280;68863;49.528;11.010;2023-04-19T03:11:58;98823.84;;;6.66;74.35
79413;BME280;68863;49.528;11.010;2023-04-19T03:12:58;98822.28;;;6.62;74.48
79413;BME280;68863;49.528;11.010;2023-04-19T03:13:58;98822.84;;;6.69;74.50
79413;BME280;68863;49.528;11.010;2023-04-19T03:14:59;98820.75;;;6.58;74.72
79413;BME280;68863;49.528;11.010;2023-04-19T03:15:59;98813.00;;;6.56;74.93
79413;BME280;68863;49.528;11.010;2023-04-19T03:17:00;98816.44;;;6.57;74.98
79413;BME280;68863;49.528;11.010;2023-04-19T03:18:00;98823.13;;;6.62;74.63
79413;BME280;68863;49.528;11.010;2023-04-19T03:19:00;98817.28;;;6.57;74.73
79413;BME280;68863;49.528;11.010;2023-04-19T03:20:01;98818.06;;;6.59;74.69
79413;BME280;68863;49.528;11.010;2023-04-19T03:21:02;98817.06;;;6.62;74.63
79413;BME280;68863;49.528;11.010;2023-04-19T03:22:02;98820.03;;;6.54;75.12
79413;BME280;68863;49.528;11.010;2023-04-19T03:23:03;98815.81;;;6.52;75.22
79413;BME280;68863;49.528;11.010;2023-04-19T03:24:03;98812.28;;;6.53;75.23
79413;BME280;68863;49.528;11.010;2023-04-19T03:25:04;98808.63;;;6.57;75.20
79413;BME280;68863;49.528;11.010;2023-04-19T03:26:04;98812.91;;;6.58;74.81
79413;BME280;68863;49.528;11.010;2023-04-19T03:27:04;98807.50;;;6.44;75.03
79413;BME280;68863;49.528;11.010;2023-04-19T03:28:05;98806.34;;;6.49;75.32
79413;BME280;68863;49.528;11.010;2023-04-19T03:29:05;98804.88;;;6.44;75.49
79413;BME280;68863;49.528;11.010;2023-04-19T03:30:06;98804.22;;;6.38;75.59
79413;BME280;68863;49.528;11.010;2023-04-19T03:31:06;98804.31;;;6.37;75.56
79413;BME280;68863;49.528;11.010;2023-04-19T03:32:06;98806.13;;;6.35;75.55
79413;BME280;68863;49.528;11.010;2023-04-19T03:33:07;98803.72;;;6.30;75.58
79413;BME280;68863;49.528;11.010;2023-04-19T03:34:07;98808.31;;;6.25;75.93
79413;BME280;68863;49.528;11.010;2023-04-19T03:35:07;98797.53;;;6.33;75.63
79413;BME280;68863;49.528;11.010;2023-04-19T03:36:08;98802.63;;;6.36;75.56
79413;BME280;68863;49.528;11.010;2023-04-19T03:37:08;98789.06;;;6.28;76.18
79413;BME280;68863;49.528;11.010;2023-04-19T03:38:09;98798.84;;;6.23;76.77
79413;BME280;68863;49.528;11.010;2023-04-19T03:39:09;98792.47;;;6.30;76.62
79413;BME280;68863;49.528;11.010;2023-04-19T03:40:10;98791.41;;;6.34;76.69
79413;BME280;68863;49.528;11.010;2023-04-19T03:41:20;98792.19;;;6.36;77.09
79413;BME280;68863;49.528;11.010;2023-04-19T03:42:21;98787.66;;;6.39;77.04
79413;BME280;68863;49.528;11.010;2023-04-19T03:43:21;98790.44;;;6.36;76.63
79413;BME280;68863;49.528;11.010;2023-04-19T03:44:21;98782.53;;;6.38;76.73
79413;BME280;68863;49.528;11.010;2023-04-19T03:45:22;98791.91;;;6.42;76.67
79413;BME280;68863;49.528;11.010;2023-04-19T03:46:22;98785.75;;;6.43;76.85
79413;BME280;68863;49.528;11.010;2023-04-19T03:47:23;98788.31;;;6.45;76.86
79413;BME280;68863;49.528;11.010;2023-04-19T03:48:23;98784.56;;;6.50;76.69
79413;BME280;68863;49.528;11.010;2023-04-19T03:49:23;98786.41;;;6.48;76.63
79413;BME280;68863;49.528;11.010;2023-04-19T03:50:24;98786.47;;;6.47;76.71
79413;BME280;68863;49.528;11.010;2023-04-19T03:51:24;98785.50;;;6.49;76.80
79413;BME280;68863;49.528;11.010;2023-04-19T03:52:26;98787.19;;;6.50;76.68
79413;BME280;68863;49.528;11.010;2023-04-19T03:53:26;98782.81;;;6.51;76.79
79413;BME280;68863;49.528;11.010;2023-04-19T03:54:27;98777.59;;;6.51;76.63
79413;BME280;68863;49.528;11.010;2023-04-19T03:55:27;98779.22;;;6.53;76.46
79413;BME280;68863;49.528;11.010;2023-04-19T03:56:27;98779.31;;;6.52;76.51
79413;BME280;68863;49.528;11.010;2023-04-19T03:57:27;98782.97;;;6.48;76.29
79413;BME280;68863;49.528;11.010;2023-04-19T03:58:28;98776.88;;;6.47;76.47
79413;BME280;68863;49.528;11.010;2023-04-19T03:59:28;98779.91;;;6.38;76.67
79413;BME280;68863;49.528;11.010;2023-04-19T04:00:28;98777.09;;;6.43;76.39
79413;BME280;68863;49.528;11.010;2023-04-19T04:01:28;98782.09;;;6.47;76.12
79413;BME280;68863;49.528;11.010;2023-04-19T04:02:29;98782.88;;;6.49;76.08
79413;BME280;68863;49.528;11.010;2023-04-19T04:03:29;98778.38;;;6.53;76.11
79413;BME280;68863;49.528;11.010;2023-04-19T04:04:29;98773.22;;;6.51;76.11
79413;BME280;68863;49.528;11.010;2023-04-19T04:05:30;98771.75;;;6.46;76.05
79413;BME280;68863;49.528;11.010;2023-04-19T04:06:30;98774.13;;;6.50;76.20
79413;BME280;68863;49.528;11.010;2023-04-19T04:07:30;98769.97;;;6.46;75.96
79413;BME280;68863;49.528;11.010;2023-04-19T04:08:31;98780.13;;;6.52;76.38
79413;BME280;68863;49.528;11.010;2023-04-19T04:09:31;98773.38;;;6.48;76.38
79413;BME280;68863;49.528;11.010;2023-04-19T04:10:31;98777.59;;;6.51;76.47
79413;BME280;68863;49.528;11.010;2023-04-19T04:11:31;98781.97;;;6.50;76.65
79413;BME280;68863;49.528;11.010;2023-04-19T04:12:32;98782.03;;;6.49;76.65
79413;BME280;68863;49.528;11.010;2023-04-19T04:13:32;98785.06;;;6.58;76.32
79413;BME280;68863;49.528;11.010;2023-04-19T04:14:32;98776.16;;;6.62;75.63
79413;BME280;68863;49.528;11.010;2023-04-19T04:15:32;98779.13;;;6.55;75.15
79413;BME280;68863;49.528;11.010;2023-04-19T04:16:33;98774.00;;;6.53;75.29
79413;BME280;68863;49.528;11.010;2023-04-19T04:17:33;98782.97;;;6.48;75.81
79413;BME280;68863;49.528;11.010;2023-04-19T04:18:33;98785.22;;;6.55;75.34
79413;BME280;68863;49.528;11.010;2023-04-19T04:19:33;98787.19;;;6.50;75.66
79413;BME280;68863;49.528;11.010;2023-04-19T04:20:34;98786.47;;;6.47;75.97
79413;BME280;68863;49.528;11.010;2023-04-19T04:21:34;98787.03;;;6.53;75.89
79413;BME280;68863;49.528;11.010;2023-04-19T04:22:34;98793.06;;;6.55;75.82
79413;BME280;68863;49.528;11.010;2023-04-19T04:23:35;98787.97;;;6.52;75.67
79413;BME280;68863;49.528;11.010;2023-04-19T04:24:38;98784.03;;;6.44;76.19
79413;BME280;68863;49.528;11.010;2023-04-19T04:25:40;98789.59;;;6.36;76.77
79413;BME280;68863;49.528;11.010;2023-04-19T04:26:42;98780.84;;;6.37;76.43
79413;BME280;68863;49.528;11.010;2023-04-19T04:27:42;98786.63;;;6.44;76.36
79413;BME280;68863;49.528;11.010;2023-04-19T04:28:45;98786.97;;;6.36;75.87
79413;BME280;68863;49.528;11.010;2023-04-19T04:29:46;98779.00;;;6.39;75.67
79413;BME280;68863;49.528;11.010;2023-04-19T04:30:46;98786.97;;;6.36;75.69
79413;BME280;68863;49.528;11.010;2023-04-19T04:31:46;98786.06;;;6.37;75.68
79413;BME280;68863;49.528;11.010;2023-04-19T04:32:47;98786.91;;;6.37;76.03
79413;BME280;68863;49.528;11.010;2023-04-19T04:33:50;98779.41;;;6.30;75.86
79413;BME280;68863;49.528;11.010;2023-04-19T04:34:52;98780.00;;;6.36;76.13
79413;BME280;68863;49.528;11.010;2023-04-19T04:35:53;98784.03;;;6.44;75.83
79413;BME280;68863;49.528;11.010;2023-04-19T04:36:53;98782.09;;;6.47;75.79
79413;BME280;68863;49.528;11.010;2023-04-19T04:37:53;98779.47;;;6.47;75.62
79413;BME280;68863;49.528;11.010;2023-04-19T04:38:54;98779.44;;;6.49;75.58
79413;BME280;68863;49.528;11.010;2023-04-19T04:39:56;98782.09;;;6.47;75.45
79413;BME280;68863;49.528;11.010;2023-04-19T04:40:56;98785.06;;;6.39;75.83
79413;BME280;68863;49.528;11.010;2023-04-19T04:41:57;98778.44;;;6.32;75.96
79413;BME280;68863;49.528;11.010;2023-04-19T04:42:58;98777.41;;;6.36;76.12
79413;BME280;68863;49.528;11.010;2023-04-19T04:44:00;98790.22;;;6.41;76.07
79413;BME280;68863;49.528;11.010;2023-04-19T04:45:03;98778.72;;;6.45;76.01
79413;BME280;68863;49.528;11.010;2023-04-19T04:46:04;98770.81;;;6.47;75.83
79413;BME280;68863;49.528;11.010;2023-04-19T04:47:05;98774.09;;;6.52;75.76
79413;BME280;68863;49.528;11.010;2023-04-19T04:48:05;98778.44;;;6.51;75.49
79413;BME280;68863;49.528;11.010;2023-04-19T04:49:05;98774.78;;;6.55;75.66
79413;BME280;68863;49.528;11.010;2023-04-19T04:50:06;98773.66;;;6.61;75.91
79413;BME280;68863;49.528;11.010;2023-04-19T04:51:07;98776.81;;;6.68;75.40
79413;BME280;68863;49.528;11.010;2023-04-19T04:52:07;98769.19;;;6.63;75.89
79413;BME280;68863;49.528;11.010;2023-04-19T04:53:08;98762.41;;;6.59;75.92
79413;BME280;68863;49.528;11.010;2023-04-19T04:54:11;98763.44;;;6.56;76.17
79413;BME280;68863;49.528;11.010;2023-04-19T04:55:11;98759.47;;;6.67;75.94
79413;BME280;68863;49.528;11.010;2023-04-19T04:56:11;98760.72;;;6.77;75.41
79413;BME280;68863;49.528;11.010;2023-04-19T04:57:11;98765.88;;;6.78;75.53
79413;BME280;68863;49.528;11.010;2023-04-19T04:58:12;98765.81;;;6.80;75.44
79413;BME280;68863;49.528;11.010;2023-04-19T04:59:12;98766.56;;;6.82;75.04
79413;BME280;68863;49.528;11.010;2023-04-19T05:00:12;98760.09;;;6.72;75.60
79413;BME280;68863;49.528;11.010;2023-04-19T05:01:13;98766.56;;;6.82;75.72
79413;BME280;68863;49.528;11.010;2023-04-19T05:02:13;98768.91;;;6.88;75.52
79413;BME280;68863;49.528;11.010;2023-04-19T05:03:14;98770.34;;;6.94;75.10
79413;BME280;68863;49.528;11.010;2023-04-19T05:04:15;98767.13;;;6.88;75.27
79413;BME280;68863;49.528;11.010;2023-04-19T05:05:15;98771.84;;;6.99;75.49
79413;BME280;68863;49.528;11.010;2023-04-19T05:06:16;98768.97;;;6.86;75.60
79413;BME280;68863;49.528;11.010;2023-04-19T05:07:16;98772.13;;;6.93;75.31
79413;BME280;68863;49.528;11.010;2023-04-19T05:08:16;98767.03;;;6.90;75.73
79413;BME280;68863;49.528;11.010;2023-04-19T05:09:16;98767.81;;;6.92;75.48
79413;BME280;68863;49.528;11.010;2023-04-19T05:10:17;98764.84;;;7.00;75.04
79413;BME280;68863;49.528;11.010;2023-04-19T05:11:17;98758.66;;;7.02;75.42
79413;BME280;68863;49.528;11.010;2023-04-19T05:12:17;98766.88;;;7.12;75.25
79413;BME280;68863;49.528;11.010;2023-04-19T05:13:18;98760.66;;;7.15;75.22
79413;BME280;68863;49.528;11.010;2023-04-19T05:14:18;98769.94;;;7.20;74.80
79413;BME280;68863;49.528;11.010;2023-04-19T05:15:18;98766.50;;;7.20;75.14
79413;BME280;68863;49.528;11.010;2023-04-19T05:16:19;98766.78;;;7.13;75.53
79413;BME280;68863;49.528;11.010;2023-04-19T05:17:19;98762.84;;;7.05;75.89
79413;BME280;68863;49.528;11.010;2023-04-19T05:18:20;98776.91;;;7.02;76.09
79413;BME280;68863;49.528;11.010;2023-04-19T05:19:20;98768.63;;;7.11;75.66
79413;BME280;68863;49.528;11.010;2023-04-19T05:20:20;98764.00;;;6.99;75.77
79413;BME280;68863;49.528;11.010;2023-04-19T05:21:21;98771.06;;;6.97;75.98
79413;BME280;68863;49.528;11.010;2023-04-19T05:22:21;98767.56;;;6.98;76.30
79413;BME280;68863;49.528;11.010;2023-04-19T05:23:22;98770.34;;;6.94;76.53